sensor_id;sensor_type;location;lat;lon;timestamp;pressure;altitude;pressure_sealevel;temperature
78669;BMP280;67984;45.118;20.724;2023-04-03T00:02:12;100041.53;;;10.50
78669;BMP280;67984;45.118;20.724;2023-04-03T00:12:13;100042.66;;;10.52
78669;BMP280;67984;45.118;20.724;2023-04-03T00:22:13;100036.66;;;10.55
78669;BMP280;67984;45.118;20.724;2023-04-03T00:32:14;100040.44;;;10.44
78669;BMP280;67984;45.118;20.724;2023-04-03T00:42:15;100034.88;;;10.42
78669;BMP280;67984;45.118;20.724;2023-04-03T00:52:17;100030.00;;;10.30
78669;BMP280;67984;45.118;20.724;2023-04-03T01:02:20;100031.53;;;10.21
78669;BMP280;67984;45.118;20.724;2023-04-03T01:12:27;100044.19;;;10.15
78669;BMP280;67984;45.118;20.724;2023-04-03T01:22:53;100049.78;;;10.14
78669;BMP280;67984;45.118;20.724;2023-04-03T01:32:56;100052.03;;;10.08
78669;BMP280;67984;45.118;20.724;2023-04-03T01:42:58;100036.38;;;10.05
78669;BMP280;67984;45.118;20.724;2023-04-03T01:52:59;100057.25;;;10.08
78669;BMP280;67984;45.118;20.724;2023-04-03T02:03:00;100046.81;;;9.98
78669;BMP280;67984;45.118;20.724;2023-04-03T02:13:01;100063.56;;;10.00
78669;BMP280;67984;45.118;20.724;2023-04-03T02:23:03;100065.41;;;9.96
78669;BMP280;67984;45.118;20.724;2023-04-03T02:33:03;100069.13;;;9.95
78669;BMP280;67984;45.118;20.724;2023-04-03T02:43:05;100078.84;;;9.95
78669;BMP280;67984;45.118;20.724;2023-04-03T02:53:07;100086.63;;;9.84
78669;BMP280;67984;45.118;20.724;2023-04-03T03:03:08;100092.56;;;9.74
78669;BMP280;67984;45.118;20.724;2023-04-03T03:13:09;100081.00;;;9.58
78669;BMP280;67984;45.118;20.724;2023-04-03T03:23:09;100092.47;;;9.47
78669;BMP280;67984;45.118;20.724;2023-04-03T03:33:10;100098.78;;;9.39
78669;BMP280;67984;45.118;20.724;2023-04-03T03:43:11;100106.53;;;9.21
78669;BMP280;67984;45.118;20.724;2023-04-03T03:53:12;100109.06;;;9.11
78669;BMP280;67984;45.118;20.724;2023-04-03T04:03:14;100113.09;;;9.01
78669;BMP280;67984;45.118;20.724;2023-04-03T04:13:16;100110.50;;;8.98
78669;BMP280;67984;45.118;20.724;2023-04-03T04:23:18;100120.47;;;8.82
78669;BMP280;67984;45.118;20.724;2023-04-03T04:33:20;100137.09;;;8.74
78669;BMP280;67984;45.118;20.724;2023-04-03T04:43:21;100141.16;;;8.68
78669;BMP280;67984;45.118;20.724;2023-04-03T04:53:26;100148.91;;;8.61
78669;BMP280;67984;45.118;20.724;2023-04-03T05:03:27;100160.38;;;8.57
78669;BMP280;67984;45.118;20.724;2023-04-03T05:13:29;100150.69;;;8.50
78669;BMP280;67984;45.118;20.724;2023-04-03T05:23:31;100159.53;;;8.46
78669;BMP280;67984;45.118;20.724;2023-04-03T05:33:35;100153.03;;;8.23
78669;BMP280;67984;45.118;20.724;2023-04-03T05:43:38;100185.38;;;7.92
78669;BMP280;67984;45.118;20.724;2023-04-03T05:53:41;100184.91;;;7.54
78669;BMP280;67984;45.118;20.724;2023-04-03T06:03:44;100194.50;;;7.50
78669;BMP280;67984;45.118;20.724;2023-04-03T06:13:45;100227.41;;;7.46
78669;BMP280;67984;45.118;20.724;2023-04-03T06:23:47;100215.44;;;7.38
78669;BMP280;67984;45.118;20.724;2023-04-03T06:33:48;100229.81;;;7.32
78669;BMP280;67984;45.118;20.724;2023-04-03T06:43:49;100244.63;;;7.32
78669;BMP280;67984;45.118;20.724;2023-04-03T06:53:52;100253.66;;;7.41
78669;BMP280;67984;45.118;20.724;2023-04-03T07:03:53;100270.81;;;7.46
78669;BMP280;67984;45.118;20.724;2023-04-03T07:13:54;100286.59;;;7.59
78669;BMP280;67984;45.118;20.724;2023-04-03T07:23:55;100274.00;;;7.61
78669;BMP280;67984;45.118;20.724;2023-04-03T07:33:56;100289.66;;;7.68
78669;BMP280;67984;45.118;20.724;2023-04-03T07:43:56;100307.78;;;7.65
78669;BMP280;67984;45.118;20.724;2023-04-03T07:53:58;100295.50;;;7.62
78669;BMP280;67984;45.118;20.724;2023-04-03T08:03:59;100296.19;;;7.85
78669;BMP280;67984;45.118;20.724;2023-04-03T08:14:00;100317.16;;;7.99
78669;BMP280;67984;45.118;20.724;2023-04-03T08:35:24;100308.44;;;8.43
78669;BMP280;67984;45.118;20.724;2023-04-03T08:45:48;100298.38;;;8.78
78669;BMP280;67984;45.118;20.724;2023-04-03T08:55:50;100306.03;;;9.03
78669;BMP280;67984;45.118;20.724;2023-04-03T09:06:07;100316.97;;;9.19
78669;BMP280;67984;45.118;20.724;2023-04-03T09:27:00;100323.25;;;9.72
78669;BMP280;67984;45.118;20.724;2023-04-03T09:37:04;100308.56;;;10.04
78669;BMP280;67984;45.118;20.724;2023-04-03T09:47:29;100299.00;;;10.46
78669;BMP280;67984;45.118;20.724;2023-04-03T09:57:32;100311.31;;;10.63
78669;BMP280;67984;45.118;20.724;2023-04-03T10:07:38;100318.81;;;10.95
78669;BMP280;67984;45.118;20.724;2023-04-03T10:27:55;100297.84;;;11.61
78669;BMP280;67984;45.118;20.724;2023-04-03T10:38:05;100302.66;;;11.70
78669;BMP280;67984;45.118;20.724;2023-04-03T10:58:20;100268.56;;;11.94
78669;BMP280;67984;45.118;20.724;2023-04-03T11:29:25;100213.47;;;12.73
78669;BMP280;67984;45.118;20.724;2023-04-03T11:39:34;100207.03;;;12.40
78669;BMP280;67984;45.118;20.724;2023-04-03T11:59:53;100194.91;;;12.57
78669;BMP280;67984;45.118;20.724;2023-04-03T12:09:57;100171.78;;;12.52
78669;BMP280;67984;45.118;20.724;2023-04-03T12:19:58;100149.34;;;12.54
78669;BMP280;67984;45.118;20.724;2023-04-03T12:30:21;100175.16;;;12.89
78669;BMP280;67984;45.118;20.724;2023-04-03T12:40:33;100172.09;;;12.94
78669;BMP280;67984;45.118;20.724;2023-04-03T12:50:40;100190.91;;;12.86
78669;BMP280;67984;45.118;20.724;2023-04-03T13:00:41;100190.28;;;12.71
78669;BMP280;67984;45.118;20.724;2023-04-03T13:10:55;100184.81;;;12.55
78669;BMP280;67984;45.118;20.724;2023-04-03T13:21:11;100180.16;;;12.29
78669;BMP280;67984;45.118;20.724;2023-04-03T13:41:29;100136.59;;;12.13
78669;BMP280;67984;45.118;20.724;2023-04-03T13:51:30;100148.97;;;12.05
78669;BMP280;67984;45.118;20.724;2023-04-03T14:01:47;100150.22;;;11.87
78669;BMP280;67984;45.118;20.724;2023-04-03T14:11:50;100133.53;;;11.67
78669;BMP280;67984;45.118;20.724;2023-04-03T14:21:54;100120.19;;;11.58
78669;BMP280;67984;45.118;20.724;2023-04-03T14:31:55;100131.34;;;11.62
78669;BMP280;67984;45.118;20.724;2023-04-03T14:41:55;100137.28;;;11.66
78669;BMP280;67984;45.118;20.724;2023-04-03T14:51:57;100130.97;;;11.63
78669;BMP280;67984;45.118;20.724;2023-04-03T15:01:58;100113.09;;;11.52
78669;BMP280;67984;45.118;20.724;2023-04-03T15:11:59;100095.63;;;11.38
78669;BMP280;67984;45.118;20.724;2023-04-03T15:21:59;100111.03;;;11.15
78669;BMP280;67984;45.118;20.724;2023-04-03T15:32:00;100133.84;;;10.94
78669;BMP280;67984;45.118;20.724;2023-04-03T15:42:01;100138.75;;;10.78
78669;BMP280;67984;45.118;20.724;2023-04-03T15:52:06;100130.19;;;10.64
78669;BMP280;67984;45.118;20.724;2023-04-03T16:02:09;100110.09;;;10.47
78669;BMP280;67984;45.118;20.724;2023-04-03T16:12:10;100126.50;;;10.33
78669;BMP280;67984;45.118;20.724;2023-04-03T16:22:11;100118.31;;;10.21
78669;BMP280;67984;45.118;20.724;2023-04-03T16:32:12;100127.97;;;10.03
78669;BMP280;67984;45.118;20.724;2023-04-03T16:42:13;100135.03;;;9.85
78669;BMP280;67984;45.118;20.724;2023-04-03T16:52:14;100136.84;;;9.74
78669;BMP280;67984;45.118;20.724;2023-04-03T17:02:15;100137.91;;;9.60
78669;BMP280;67984;45.118;20.724;2023-04-03T17:12:16;100123.00;;;9.46
78669;BMP280;67984;45.118;20.724;2023-04-03T17:22:17;100108.44;;;9.31
78669;BMP280;67984;45.118;20.724;2023-04-03T17:32:17;100111.34;;;9.16
78669;BMP280;67984;45.118;20.724;2023-04-03T17:42:19;100123.19;;;9.06
78669;BMP280;67984;45.118;20.724;2023-04-03T17:52:20;100133.91;;;8.98
78669;BMP280;67984;45.118;20.724;2023-04-03T18:02:24;100135.72;;;8.87
78669;BMP280;67984;45.118;20.724;2023-04-03T18:12:25;100151.94;;;8.70
78669;BMP280;67984;45.118;20.724;2023-04-03T18:22:27;100130.28;;;8.52
78669;BMP280;67984;45.118;20.724;2023-04-03T18:32:28;100117.09;;;8.31
78669;BMP280;67984;45.118;20.724;2023-04-03T18:42:29;100145.88;;;8.13
78669;BMP280;67984;45.118;20.724;2023-04-03T18:52:30;100102.22;;;7.89
78669;BMP280;67984;45.118;20.724;2023-04-03T19:02:31;100129.78;;;7.67
78669;BMP280;67984;45.118;20.724;2023-04-03T19:12:32;100112.19;;;7.51
78669;BMP280;67984;45.118;20.724;2023-04-03T19:22:33;100091.41;;;7.21
78669;BMP280;67984;45.118;20.724;2023-04-03T19:32:34;100103.44;;;7.03
78669;BMP280;67984;45.118;20.724;2023-04-03T19:42:36;100106.09;;;6.84
78669;BMP280;67984;45.118;20.724;2023-04-03T19:52:43;100097.88;;;6.57
78669;BMP280;67984;45.118;20.724;2023-04-03T20:02:44;100109.69;;;6.32
78669;BMP280;67984;45.118;20.724;2023-04-03T20:12:44;100137.81;;;6.11
78669;BMP280;67984;45.118;20.724;2023-04-03T20:22:45;100075.59;;;5.85
78669;BMP280;67984;45.118;20.724;2023-04-03T20:32:47;100085.56;;;5.49
78669;BMP280;67984;45.118;20.724;2023-04-03T20:43:00;100100.47;;;5.36
78669;BMP280;67984;45.118;20.724;2023-04-03T20:53:23;100090.84;;;5.03
78669;BMP280;67984;45.118;20.724;2023-04-03T21:03:41;100102.91;;;4.80
78669;BMP280;67984;45.118;20.724;2023-04-03T21:24:31;100087.50;;;3.70
78669;BMP280;67984;45.118;20.724;2023-04-03T21:34:32;100100.69;;;2.94
78669;BMP280;67984;45.118;20.724;2023-04-03T21:44:33;100094.97;;;2.20
78669;BMP280;67984;45.118;20.724;2023-04-03T21:54:33;100096.19;;;1.82
78669;BMP280;67984;45.118;20.724;2023-04-03T22:04:35;100097.06;;;1.57
78669;BMP280;67984;45.118;20.724;2023-04-03T22:14:36;100088.84;;;1.43
78669;BMP280;67984;45.118;20.724;2023-04-03T22:24:37;100071.50;;;1.32
78669;BMP280;67984;45.118;20.724;2023-04-03T22:34:38;100061.47;;;1.27
78669;BMP280;67984;45.118;20.724;2023-04-03T22:44:39;100052.69;;;1.19
78669;BMP280;67984;45.118;20.724;2023-04-03T22:54:40;100047.94;;;1.09
78669;BMP280;67984;45.118;20.724;2023-04-03T23:04:41;100044.63;;;1.09
78669;BMP280;67984;45.118;20.724;2023-04-03T23:14:42;100039.78;;;1.07
78669;BMP280;67984;45.118;20.724;2023-04-03T23:24:42;100023.63;;;1.07
78669;BMP280;67984;45.118;20.724;2023-04-03T23:34:43;100021.06;;;1.07
78669;BMP280;67984;45.118;20.724;2023-04-03T23:44:44;100005.66;;;1.07
78669;BMP280;67984;45.118;20.724;2023-04-03T23:54:45;100013.38;;;1.07
